Time;durP1;ratioP1;P1;durP2;ratioP2;P2;SDS_P1;SDS_P2;PMS_P1;PMS_P2;Temp;Humidity;BMP_temperature;BMP_pressure;BME280_temperature;BME280_humidity;BME280_pressure;Samples;Min_cycle;Max_cycle;Signal;HPM_P1;HPM_P2
2021/12/26 00:01:41;;;;;;;2.35;2.25;;;;;;;-0.02;84.11;100382.91;4351007;32;20070;-74
2021/12/26 00:04:06;;;;;;;2.30;2.20;;;;;;;-0.98;84.50;100227.78;4380551;32;20126;-74
2021/12/26 00:06:32;;;;;;;3.58;3.47;;;;;;;-0.48;85.06;100316.47;4372147;32;20094;-73
2021/12/26 00:08:58;;;;;;;2.40;2.30;;;;;;;-0.16;85.23;100380.53;4378153;32;20076;-72
2021/12/26 00:11:24;;;;;;;3.90;3.75;;;;;;;-0.22;85.81;100372.84;4356449;32;20140;-72
2021/12/26 00:13:50;;;;;;;2.50;2.40;;;;;;;-0.21;85.87;100374.56;4368009;32;20556;-74
2021/12/26 00:16:16;;;;;;;2.50;2.40;;;;;;;-0.22;85.81;100383.16;4356905;32;20113;-74
2021/12/26 00:18:44;;;;;;;3.05;2.95;;;;;;;-0.22;86.09;100378.00;4353873;32;20099;-71
2021/12/26 00:21:10;;;;;;;2.62;2.53;;;;;;;-0.24;86.11;100377.16;4364677;32;20085;-73
2021/12/26 00:23:35;;;;;;;2.40;2.30;;;;;;;-0.20;85.79;100365.97;4349933;32;20093;-73
2021/12/26 00:26:00;;;;;;;2.70;2.60;;;;;;;-0.26;86.35;100368.59;4357684;32;20597;-73
2021/12/26 00:28:26;;;;;;;4.87;4.68;;;;;;;-0.32;86.68;100368.69;4353632;32;20065;-74
2021/12/26 00:30:51;;;;;;;2.30;2.20;;;;;;;-0.91;87.02;100274.06;4368911;32;20083;-72
2021/12/26 00:33:16;;;;;;;2.55;2.45;;;;;;;-1.22;87.34;100250.41;4353081;32;20089;-74
2021/12/26 00:35:42;;;;;;;2.90;2.80;;;;;;;-0.43;86.87;100359.37;4366528;32;20969;-73
2021/12/26 00:38:07;;;;;;;2.20;2.10;;;;;;;-0.44;87.20;100360.25;4358925;32;20084;-75
2021/12/26 00:40:33;;;;;;;3.55;3.45;;;;;;;-0.71;87.68;100320.19;4361320;32;21075;-72
2021/12/26 00:42:58;;;;;;;2.33;2.22;;;;;;;-0.44;88.04;100355.09;4354222;32;20083;-73
2021/12/26 00:45:24;;;;;;;3.50;3.40;;;;;;;-1.35;88.07;100197.34;4363292;32;20152;-74
2021/12/26 00:47:49;;;;;;;2.42;2.33;;;;;;;-0.29;89.21;100356.59;4351675;32;20159;-73
2021/12/26 00:50:17;;;;;;;2.28;2.17;;;;;;;-0.19;88.50;100352.19;4356962;32;20327;-73
2021/12/26 00:52:42;;;;;;;2.80;2.70;;;;;;;-0.14;87.61;100334.94;4351393;32;20081;-73
2021/12/26 00:55:09;;;;;;;2.30;2.20;;;;;;;-0.06;86.67;100321.91;4358873;32;20096;-71
2021/12/26 00:57:34;;;;;;;3.33;3.22;;;;;;;0.15;85.88;100338.81;4351222;32;20639;-73
2021/12/26 01:00:00;;;;;;;2.30;2.20;;;;;;;-0.12;85.72;100279.03;4371635;32;20083;-73
2021/12/26 01:02:25;;;;;;;4.05;3.85;;;;;;;-0.25;85.54;100259.44;4351460;32;20454;-74
2021/12/26 01:04:50;;;;;;;2.50;2.40;;;;;;;0.27;84.29;100340.34;4368127;32;20061;-70
2021/12/26 01:07:29;;;;;;;2.35;2.25;;;;;;;0.35;84.13;100325.59;4350378;32;20222;-74
2021/12/26 01:09:54;;;;;;;2.35;2.25;;;;;;;0.19;83.64;100317.25;4372473;32;20164;-73
2021/12/26 01:12:20;;;;;;;5.07;3.58;;;;;;;0.33;83.34;100341.09;4350904;32;20093;-73
2021/12/26 01:14:50;;;;;;;2.40;2.30;;;;;;;0.34;84.06;100340.25;4364463;32;20710;-73
2021/12/26 01:17:20;;;;;;;2.47;2.37;;;;;;;0.30;83.19;100336.00;4373500;32;20086;-73
2021/12/26 01:19:49;;;;;;;2.40;2.30;;;;;;;0.21;83.07;100325.81;4354587;32;20069;-74
2021/12/26 01:22:15;;;;;;;2.50;2.40;;;;;;;0.25;83.05;100326.62;4359509;32;20197;-73
2021/12/26 01:24:42;;;;;;;2.30;2.20;;;;;;;0.28;82.78;100334.28;4361975;32;20103;-74
2021/12/26 01:27:07;;;;;;;2.20;2.10;;;;;;;0.30;82.28;100333.41;4363679;32;20065;-73
2021/12/26 01:29:34;;;;;;;3.47;3.37;;;;;;;0.32;82.14;100344.56;4356293;32;20073;-76
2021/12/26 01:31:59;;;;;;;2.40;2.30;;;;;;;0.33;81.81;100345.41;4367403;32;20100;-74
2021/12/26 01:34:24;;;;;;;4.03;3.85;;;;;;;0.23;81.38;100329.22;4358713;32;20077;-74
2021/12/26 01:36:50;;;;;;;2.40;2.30;;;;;;;0.28;81.46;100340.34;4365998;32;20079;-74
2021/12/26 01:39:15;;;;;;;2.35;2.25;;;;;;;0.27;82.05;100338.63;4356801;32;20594;-74
2021/12/26 01:41:42;;;;;;;2.60;2.50;;;;;;;0.21;81.61;100330.97;4369193;32;20083;-73
2021/12/26 01:44:10;;;;;;;2.30;2.20;;;;;;;0.27;82.14;100348.09;4367626;32;20181;-74
2021/12/26 01:46:36;;;;;;;2.45;2.35;;;;;;;0.21;82.41;100341.28;4377642;32;20074;-73
2021/12/26 01:49:10;;;;;;;2.30;2.20;;;;;;;0.27;82.30;100343.78;4368091;32;20092;-72
2021/12/26 01:51:35;;;;;;;2.30;2.20;;;;;;;0.28;82.01;100345.50;4350444;32;20088;-76
2021/12/26 01:54:06;;;;;;;2.40;2.30;;;;;;;0.21;82.23;100359.34;4358303;32;20074;-73
2021/12/26 01:56:32;;;;;;;3.97;3.80;;;;;;;0.29;82.46;100341.19;4368712;32;20069;-74
2021/12/26 01:58:57;;;;;;;2.40;2.30;;;;;;;-0.03;81.69;100291.75;4366566;32;20108;-71
2021/12/26 02:01:23;;;;;;;3.17;3.08;;;;;;;0.30;81.72;100337.72;4350599;32;20097;-72
2021/12/26 02:03:48;;;;;;;2.30;2.20;;;;;;;0.24;81.93;100323.19;4361331;32;20169;-71
2021/12/26 02:06:14;;;;;;;2.65;2.50;;;;;;;0.27;82.17;100330.88;4356460;32;20100;-74
2021/12/26 02:08:39;;;;;;;2.50;2.40;;;;;;;0.25;82.46;100337.78;4370590;32;20080;-71
2021/12/26 02:11:04;;;;;;;2.40;2.30;;;;;;;0.35;82.43;100323.84;4373135;32;20600;-71
2021/12/26 02:13:30;;;;;;;3.80;3.67;;;;;;;-0.64;81.88;100181.84;4368193;32;20496;-73
2021/12/26 02:15:56;;;;;;;2.20;2.10;;;;;;;0.26;82.29;100321.44;4371170;32;20591;-73
2021/12/26 02:18:21;;;;;;;3.53;3.42;;;;;;;0.26;83.63;100326.59;4348667;32;20066;-73
2021/12/26 02:23:24;;;;;;;2.20;2.10;;;;;;;0.34;82.89;100326.44;4365833;32;20339;-74
2021/12/26 02:28:33;;;;;;;2.62;2.53;;;;;;;0.22;83.12;100313.75;4366378;32;20064;-73
2021/12/26 02:30:59;;;;;;;2.30;2.20;;;;;;;0.30;83.39;100315.34;4365819;32;20061;-73
2021/12/26 02:33:24;;;;;;;4.05;3.85;;;;;;;-0.29;83.19;100216.53;4352051;32;20061;-73
2021/12/26 02:35:50;;;;;;;2.50;2.40;;;;;;;0.26;83.00;100316.28;4368707;32;20470;-72
2021/12/26 02:38:15;;;;;;;2.30;2.20;;;;;;;-1.03;83.00;100130.00;4350376;32;21116;-74
2021/12/26 02:40:41;;;;;;;2.50;2.40;;;;;;;-0.20;83.19;100242.19;4370820;32;20061;-75
2021/12/26 02:43:07;;;;;;;2.20;2.10;;;;;;;0.24;84.22;100310.28;4358966;32;20066;-72
2021/12/26 02:45:33;;;;;;;4.03;3.85;;;;;;;0.19;83.68;100318.09;4361661;32;20696;-73
2021/12/26 02:47:58;;;;;;;2.60;2.50;;;;;;;0.18;83.78;100316.41;4371920;32;20062;-72
2021/12/26 02:50:25;;;;;;;4.37;4.18;;;;;;;0.10;84.05;100302.78;4359657;32;20084;-71
2021/12/26 02:52:51;;;;;;;2.40;2.30;;;;;;;0.11;84.43;100311.34;4386245;32;20200;-74
2021/12/26 02:55:17;;;;;;;2.40;2.30;;;;;;;0.14;84.46;100309.59;4364725;32;20091;-72
2021/12/26 02:57:47;;;;;;;2.37;2.28;;;;;;;-0.20;84.19;100257.66;4377076;32;20095;-72
2021/12/26 03:00:15;;;;;;;2.45;2.35;;;;;;;-1.05;84.04;100118.87;4356307;32;20069;-72
2021/12/26 03:02:44;;;;;;;2.40;2.30;;;;;;;-0.04;84.57;100297.81;4350290;32;20528;-72
2021/12/26 03:05:10;;;;;;;2.30;2.20;;;;;;;-0.04;84.62;100305.56;4376344;32;20096;-71
2021/12/26 03:07:36;;;;;;;3.00;2.90;;;;;;;-0.17;85.75;100309.19;4353025;32;20641;-73
2021/12/26 03:10:01;;;;;;;2.20;2.10;;;;;;;-0.10;85.62;100313.38;4370763;32;20117;-72
2021/12/26 03:12:28;;;;;;;4.03;3.85;;;;;;;-0.21;86.33;100321.25;4352485;32;20074;-71
2021/12/26 03:14:53;;;;;;;2.40;2.30;;;;;;;-0.84;86.20;100223.34;4362558;32;20544;-71
2021/12/26 03:17:18;;;;;;;3.62;3.53;;;;;;;-0.33;86.40;100313.69;4371421;32;20077;-73
2021/12/26 03:19:44;;;;;;;2.62;2.53;;;;;;;-0.33;86.82;100318.00;4367803;32;20538;-72
2021/12/26 03:22:09;;;;;;;2.30;2.20;;;;;;;-0.36;87.14;100312.88;4345262;32;20065;-73
2021/12/26 03:24:37;;;;;;;2.92;2.83;;;;;;;-0.33;87.36;100305.13;4369026;32;20073;-74
2021/12/26 03:27:04;;;;;;;2.60;2.50;;;;;;;-0.64;86.91;100261.72;4377096;32;20053;-74
2021/12/26 03:29:29;;;;;;;4.25;4.05;;;;;;;-0.34;87.29;100293.09;4367452;32;20083;-72
2021/12/26 03:31:54;;;;;;;2.40;2.30;;;;;;;-0.21;87.05;100310.94;4366830;32;20584;-72
2021/12/26 03:34:20;;;;;;;2.53;2.42;;;;;;;-0.14;87.28;100309.16;4358827;32;20120;-73
2021/12/26 03:36:46;;;;;;;2.60;2.50;;;;;;;-0.06;86.82;100304.72;4369879;32;20457;-72
2021/12/26 03:39:11;;;;;;;2.30;2.20;;;;;;;-0.04;87.74;100302.97;4365628;32;20077;-72
2021/12/26 03:41:37;;;;;;;2.70;2.60;;;;;;;-0.95;86.87;100146.19;4366836;32;20073;-72
2021/12/26 03:44:02;;;;;;;2.30;2.20;;;;;;;-0.20;87.24;100262.81;4364689;32;20064;-73
2021/12/26 03:46:28;;;;;;;4.03;3.85;;;;;;;0.09;86.64;100303.62;4353374;32;20175;-73
2021/12/26 03:48:53;;;;;;;2.40;2.30;;;;;;;0.09;87.24;100302.78;4366064;32;20591;-72
2021/12/26 03:51:21;;;;;;;3.55;3.45;;;;;;;0.13;86.60;100297.53;4352976;32;20109;-72
2021/12/26 03:53:46;;;;;;;2.40;2.30;;;;;;;0.13;86.76;100301.84;4368478;32;20078;-72
2021/12/26 03:56:12;;;;;;;2.40;2.30;;;;;;;0.17;86.77;100294.03;4352232;32;20065;-72
2021/12/26 03:58:38;;;;;;;2.85;2.75;;;;;;;0.22;87.24;100291.41;4367101;32;20064;-73
2021/12/26 04:01:03;;;;;;;2.40;2.30;;;;;;;0.20;87.11;100285.38;4367953;32;20229;-72
2021/12/26 04:03:29;;;;;;;3.65;3.55;;;;;;;0.14;86.29;100263.13;4373168;32;20084;-73
2021/12/26 04:05:54;;;;;;;2.72;2.62;;;;;;;0.27;86.87;100281.00;4368286;32;20143;-72
2021/12/26 04:08:19;;;;;;;3.05;2.95;;;;;;;0.29;86.52;100287.81;4367459;32;20096;-73
2021/12/26 04:10:45;;;;;;;2.40;2.30;;;;;;;0.38;86.33;100279.94;4366243;32;20174;-72
2021/12/26 04:13:10;;;;;;;2.33;2.22;;;;;;;0.42;86.56;100282.44;4368420;32;20076;-71
2021/12/26 04:15:35;;;;;;;2.70;2.60;;;;;;;0.37;86.36;100288.53;4372120;32;20667;-72
2021/12/26 04:18:01;;;;;;;2.40;2.30;;;;;;;0.39;86.52;100283.38;4368730;32;20083;-72
2021/12/26 04:20:26;;;;;;;4.03;3.83;;;;;;;0.42;86.11;100285.88;4356175;32;20093;-74
2021/12/26 04:22:52;;;;;;;2.78;2.67;;;;;;;0.38;86.42;100279.94;4372987;32;20665;-74
2021/12/26 04:25:18;;;;;;;2.60;2.50;;;;;;;0.22;86.41;100256.97;4362464;32;20065;-74
2021/12/26 04:27:44;;;;;;;2.40;2.30;;;;;;;0.39;86.42;100275.63;4361720;32;20069;-76
2021/12/26 04:30:11;;;;;;;2.30;2.20;;;;;;;0.44;86.99;100270.38;4357592;32;20076;-71
2021/12/26 04:32:36;;;;;;;2.40;2.30;;;;;;;0.37;87.21;100264.47;4372089;32;20081;-72
2021/12/26 04:35:01;;;;;;;2.35;2.25;;;;;;;0.38;87.18;100263.56;4375437;32;20110;-75
2021/12/26 04:37:27;;;;;;;2.37;2.28;;;;;;;0.36;86.98;100255.00;4367789;32;20081;-74
2021/12/26 04:39:52;;;;;;;2.50;2.40;;;;;;;0.44;86.28;100258.34;4378260;32;20599;-75
2021/12/26 04:42:18;;;;;;;2.50;2.40;;;;;;;0.41;87.04;100260.97;4358639;32;20069;-70
2021/12/26 04:44:43;;;;;;;2.30;2.20;;;;;;;0.44;86.90;100268.66;4360160;32;20189;-73
2021/12/26 04:47:09;;;;;;;2.55;2.45;;;;;;;0.44;86.97;100266.09;4357530;32;20319;-72
2021/12/26 04:49:34;;;;;;;3.70;3.60;;;;;;;0.48;86.92;100265.16;4360585;32;20076;-71
2021/12/26 04:51:59;;;;;;;2.40;2.30;;;;;;;0.42;86.96;100248.91;4367444;32;20188;-71
2021/12/26 04:54:25;;;;;;;3.80;3.67;;;;;;;0.57;86.31;100259.81;4353853;32;20477;-73
2021/12/26 04:56:50;;;;;;;2.45;2.35;;;;;;;0.59;86.12;100262.34;4367215;32;20084;-71
2021/12/26 04:59:15;;;;;;;2.50;2.40;;;;;;;0.43;85.92;100230.81;4353746;32;20084;-73
2021/12/26 05:01:41;;;;;;;2.40;2.30;;;;;;;-1.34;86.11;99942.50;4373660;32;20908;-72
2021/12/26 05:04:06;;;;;;;2.50;2.40;;;;;;;0.55;86.65;100265.88;4368893;32;20080;-72
2021/12/26 05:06:31;;;;;;;4.10;3.90;;;;;;;0.54;86.06;100261.56;4366090;32;20407;-73
2021/12/26 05:08:57;;;;;;;2.40;2.30;;;;;;;0.53;86.79;100265.91;4372447;32;20087;-72
2021/12/26 05:11:22;;;;;;;3.72;3.62;;;;;;;0.62;85.98;100266.59;4362201;32;20234;-73
2021/12/26 05:13:47;;;;;;;2.80;2.70;;;;;;;0.60;85.86;100269.22;4367667;32;20088;-70
2021/12/26 05:16:13;;;;;;;2.25;2.15;;;;;;;0.63;85.97;100271.75;4355813;32;20148;-75
2021/12/26 05:18:38;;;;;;;2.20;2.10;;;;;;;0.61;85.88;100260.59;4379222;32;20069;-72
2021/12/26 05:21:03;;;;;;;2.50;2.40;;;;;;;0.61;86.25;100265.75;4374764;32;20176;-74
2021/12/26 05:23:29;;;;;;;3.60;3.50;;;;;;;0.57;86.72;100269.28;4351166;32;20087;-73
2021/12/26 05:25:54;;;;;;;2.20;2.10;;;;;;;0.19;86.64;100201.12;4370623;32;20077;-72
2021/12/26 05:28:20;;;;;;;3.70;3.55;;;;;;;0.57;86.23;100269.28;4353981;32;20089;-75
2021/12/26 05:30:45;;;;;;;3.05;2.85;;;;;;;0.54;87.05;100264.16;4353733;32;20139;-73
2021/12/26 05:33:10;;;;;;;2.78;2.65;;;;;;;0.60;86.54;100256.31;4359831;32;20070;-73
2021/12/26 05:35:36;;;;;;;2.40;2.30;;;;;;;0.57;86.24;100264.97;4355142;32;20946;-75
2021/12/26 05:38:01;;;;;;;2.40;2.30;;;;;;;0.60;87.06;100261.47;4353060;32;20077;-75
2021/12/26 05:40:26;;;;;;;4.03;3.85;;;;;;;0.58;86.74;100251.19;4366064;32;20733;-74
2021/12/26 05:42:52;;;;;;;2.30;2.20;;;;;;;0.59;86.93;100246.87;4349468;32;20107;-73
2021/12/26 05:45:17;;;;;;;5.28;5.07;;;;;;;0.59;86.88;100257.19;4364820;32;20074;-73
2021/12/26 05:47:43;;;;;;;2.50;2.40;;;;;;;0.59;87.00;100275.28;4367600;32;20580;-72
2021/12/26 05:50:09;;;;;;;2.25;2.15;;;;;;;0.59;87.12;100262.34;4356225;32;20073;-72
2021/12/26 05:52:35;;;;;;;2.30;2.20;;;;;;;0.33;86.96;100213.78;4354926;32;20723;-72
2021/12/26 05:55:00;;;;;;;2.40;2.30;;;;;;;0.50;87.11;100254.78;4365762;32;20093;-74
2021/12/26 05:57:25;;;;;;;4.15;3.95;;;;;;;0.58;87.27;100265.81;4353867;32;20073;-72
2021/12/26 05:59:51;;;;;;;2.40;2.30;;;;;;;0.50;86.66;100241.84;4360973;32;20572;-73
2021/12/26 06:02:16;;;;;;;2.78;2.67;;;;;;;0.46;87.48;100253.13;4351334;32;20069;-73
2021/12/26 06:04:42;;;;;;;2.28;2.17;;;;;;;0.36;87.80;100245.56;4363944;32;20077;-77
2021/12/26 06:07:07;;;;;;;2.40;2.30;;;;;;;0.37;87.49;100249.81;4354311;32;20065;-74
2021/12/26 06:09:33;;;;;;;3.47;3.37;;;;;;;0.33;87.53;100242.19;4366490;32;20077;-74
2021/12/26 06:11:58;;;;;;;2.30;2.20;;;;;;;0.31;88.55;100239.63;4370049;32;20073;-74
2021/12/26 06:14:23;;;;;;;3.97;3.80;;;;;;;0.20;88.46;100249.25;4358644;32;20073;-72
2021/12/26 06:16:49;;;;;;;2.40;2.30;;;;;;;0.18;88.43;100240.69;4372818;32;20460;-74
2021/12/26 06:19:14;;;;;;;2.50;2.40;;;;;;;0.23;88.44;100245.78;4353587;32;20075;-74
2021/12/26 06:21:39;;;;;;;2.47;2.37;;;;;;;0.25;88.31;100255.19;4352301;32;20089;-72
2021/12/26 06:24:05;;;;;;;2.50;2.40;;;;;;;0.24;89.22;100253.53;4374121;32;20359;-73
2021/12/26 06:26:31;;;;;;;4.03;3.85;;;;;;;0.29;89.63;100238.78;4363115;32;20446;-71
2021/12/26 06:28:56;;;;;;;2.40;2.30;;;;;;;0.23;89.83;100238.91;4356408;32;20104;-73
2021/12/26 06:31:21;;;;;;;4.00;3.80;;;;;;;0.32;89.16;100249.06;4364982;32;20353;-74
2021/12/26 06:33:47;;;;;;;2.45;2.35;;;;;;;0.38;88.88;100237.75;4352318;32;20066;-73
2021/12/26 06:36:12;;;;;;;2.50;2.40;;;;;;;0.25;88.71;100237.13;4360856;32;20124;-73
2021/12/26 06:38:38;;;;;;;2.75;2.65;;;;;;;0.33;89.22;100242.19;4365517;32;20357;-74
2021/12/26 06:41:04;;;;;;;2.50;2.40;;;;;;;0.44;88.88;100237.69;4363877;32;20169;-74
2021/12/26 06:43:29;;;;;;;4.22;3.75;;;;;;;0.20;89.71;100197.66;4362423;32;20080;-72
2021/12/26 06:45:54;;;;;;;2.40;2.30;;;;;;;-0.21;88.84;100135.59;4372381;32;20081;-72
2021/12/26 06:48:20;;;;;;;3.22;3.12;;;;;;;0.50;89.24;100241.84;4363681;32;20080;-77
2021/12/26 06:50:46;;;;;;;2.40;2.30;;;;;;;0.52;89.14;100234.94;4363861;32;20065;-75
2021/12/26 06:53:11;;;;;;;2.40;2.30;;;;;;;0.52;89.08;100247.84;4354673;32;20065;-74
2021/12/26 06:55:37;;;;;;;2.83;2.72;;;;;;;0.55;88.59;100237.47;4365624;32;20081;-75
2021/12/26 06:58:02;;;;;;;2.80;2.70;;;;;;;0.52;88.63;100246.12;4370429;32;20602;-73
2021/12/26 07:00:28;;;;;;;4.18;3.97;;;;;;;0.45;89.46;100217.88;4367903;32;20136;-72
2021/12/26 07:02:53;;;;;;;2.35;2.25;;;;;;;0.52;88.86;100240.97;4355049;32;20588;-73
2021/12/26 07:05:18;;;;;;;3.03;2.92;;;;;;;0.58;89.43;100237.41;4370751;32;20067;-72
2021/12/26 07:07:44;;;;;;;2.50;2.40;;;;;;;0.62;88.79;100240.78;4350289;32;20781;-73
2021/12/26 07:10:09;;;;;;;2.70;2.60;;;;;;;0.61;88.70;100250.28;4360198;32;20143;-76
2021/12/26 07:12:35;;;;;;;2.80;2.70;;;;;;;0.65;88.94;100243.31;4366149;32;20066;-74
2021/12/26 07:15:00;;;;;;;2.50;2.40;;;;;;;0.65;88.60;100251.91;4364720;32;20066;-73
2021/12/26 07:17:25;;;;;;;4.40;4.20;;;;;;;-0.27;88.26;100111.66;4371813;32;20195;-73
2021/12/26 07:19:51;;;;;;;2.45;2.35;;;;;;;0.52;88.36;100237.53;4370389;32;20093;-74
2021/12/26 07:22:16;;;;;;;3.03;2.92;;;;;;;0.67;89.05;100264.81;4355537;32;20077;-75
2021/12/26 07:24:43;;;;;;;2.47;2.37;;;;;;;0.71;87.98;100276.78;4373016;32;20092;-75
2021/12/26 07:27:13;;;;;;;2.65;2.55;;;;;;;0.58;88.30;100245.16;4350627;32;20203;-72
2021/12/26 07:29:38;;;;;;;2.40;2.30;;;;;;;0.61;88.79;100260.59;4374753;32;20077;-75
2021/12/26 07:32:05;;;;;;;2.40;2.30;;;;;;;0.72;88.15;100271.59;4362825;32;20197;-73
2021/12/26 07:34:31;;;;;;;4.22;4.03;;;;;;;0.68;88.86;100267.37;4361508;32;20076;-73
2021/12/26 07:36:56;;;;;;;3.10;2.90;;;;;;;0.74;88.68;100275.00;4368961;32;20129;-74
2021/12/26 07:39:21;;;;;;;3.95;3.78;;;;;;;0.70;88.32;100267.31;4367874;32;20701;-77
2021/12/26 07:41:47;;;;;;;2.50;2.40;;;;;;;0.71;88.86;100262.12;4373824;32;20085;-77
2021/12/26 07:44:12;;;;;;;2.53;2.42;;;;;;;0.72;88.60;100261.25;4354253;32;20069;-74
2021/12/26 07:46:37;;;;;;;3.62;3.53;;;;;;;0.79;87.79;100254.25;4369326;32;20164;-74
2021/12/26 07:49:03;;;;;;;2.50;2.40;;;;;;;0.80;88.02;100258.50;4363911;32;20215;-75
2021/12/26 07:51:28;;;;;;;4.03;3.85;;;;;;;0.62;88.53;100245.94;4350042;32;20091;-76
2021/12/26 07:53:58;;;;;;;2.90;2.70;;;;;;;0.81;88.62;100249.06;4368590;32;20131;-76
2021/12/26 07:56:24;;;;;;;4.12;3.92;;;;;;;0.82;88.37;100253.31;4353071;32;20171;-76
2021/12/26 07:58:49;;;;;;;2.58;2.47;;;;;;;0.79;88.73;100265.41;4364448;32;20918;-74
2021/12/26 08:01:14;;;;;;;2.50;2.40;;;;;;;-0.31;88.35;100064.44;4353719;32;20112;-75
2021/12/26 08:03:40;;;;;;;2.50;2.40;;;;;;;0.85;88.16;100242.94;4370209;32;20078;-73
2021/12/26 08:06:07;;;;;;;2.60;2.50;;;;;;;0.84;88.61;100246.41;4364108;32;20081;-74
2021/12/26 08:08:32;;;;;;;4.20;4.00;;;;;;;0.87;88.50;100246.34;4355316;32;20077;-76
2021/12/26 08:10:58;;;;;;;2.40;2.30;;;;;;;-0.01;87.66;100091.37;4355861;32;20485;-75
2021/12/26 08:13:23;;;;;;;3.87;3.75;;;;;;;0.99;87.32;100251.28;4352441;32;20092;-73
2021/12/26 08:15:49;;;;;;;2.50;2.40;;;;;;;0.89;87.92;100242.84;4368783;32;20661;-73
2021/12/26 08:18:14;;;;;;;2.80;2.70;;;;;;;0.28;87.68;100146.78;4356370;32;20078;-73
2021/12/26 08:20:40;;;;;;;2.45;2.35;;;;;;;0.38;87.58;100155.16;4347812;32;20592;-74
2021/12/26 08:23:05;;;;;;;2.55;2.45;;;;;;;0.88;87.94;100242.88;4365247;32;20069;-75
2021/12/26 08:25:30;;;;;;;4.35;4.15;;;;;;;0.96;87.32;100264.22;4357963;32;21180;-73
2021/12/26 08:27:56;;;;;;;2.50;2.40;;;;;;;0.99;87.29;100266.78;4373944;32;20905;-74
2021/12/26 08:30:21;;;;;;;3.47;3.37;;;;;;;0.95;87.62;100254.78;4355846;32;20069;-74
2021/12/26 08:32:51;;;;;;;2.90;2.80;;;;;;;0.89;88.02;100242.84;4356582;32;20089;-74
2021/12/26 08:35:16;;;;;;;2.60;2.50;;;;;;;0.73;87.72;100219.03;4372223;32;20082;-76
2021/12/26 08:37:42;;;;;;;2.60;2.50;;;;;;;0.70;87.98;100201.03;4351732;32;20862;-73
2021/12/26 08:40:08;;;;;;;2.60;2.50;;;;;;;1.07;87.60;100262.31;4368087;32;20966;-73
2021/12/26 08:42:33;;;;;;;3.83;3.67;;;;;;;1.07;87.63;100264.03;4365618;32;20104;-73
2021/12/26 08:44:59;;;;;;;2.60;2.50;;;;;;;1.12;87.17;100267.37;4382136;32;20092;-75
2021/12/26 08:47:25;;;;;;;3.50;3.40;;;;;;;1.09;87.79;100262.28;4347749;32;20076;-73
2021/12/26 08:49:51;;;;;;;2.50;2.40;;;;;;;1.10;86.80;100259.66;4365548;32;20081;-73
2021/12/26 08:52:16;;;;;;;2.78;2.67;;;;;;;0.84;87.07;100205.91;4351321;32;20100;-75
2021/12/26 08:54:41;;;;;;;2.53;2.42;;;;;;;1.16;87.17;100262.12;4363663;32;20563;-75
2021/12/26 08:57:07;;;;;;;2.60;2.50;;;;;;;0.58;87.20;100167.69;4367988;32;20069;-74
2021/12/26 08:59:32;;;;;;;3.87;3.72;;;;;;;0.90;87.07;100210.09;4356960;32;20093;-74
2021/12/26 09:01:58;;;;;;;2.50;2.40;;;;;;;1.25;87.14;100255.91;4372983;32;20444;-75
2021/12/26 09:04:24;;;;;;;4.35;4.15;;;;;;;1.26;86.69;100259.31;4353958;32;20069;-73
2021/12/26 09:06:49;;;;;;;3.65;3.45;;;;;;;1.25;87.36;100280.91;4366643;32;20087;-74
2021/12/26 09:09:15;;;;;;;2.78;2.67;;;;;;;1.09;87.67;100233.84;4353133;32;20073;-74
2021/12/26 09:11:40;;;;;;;2.90;2.80;;;;;;;1.14;87.19;100237.16;4362875;32;20069;-74
2021/12/26 09:14:05;;;;;;;2.60;2.50;;;;;;;1.30;87.51;100260.97;4373147;32;20081;-74
2021/12/26 09:16:33;;;;;;;4.20;4.00;;;;;;;1.22;86.80;100248.19;4363396;32;20077;-74
2021/12/26 09:19:00;;;;;;;2.60;2.50;;;;;;;1.17;86.75;100240.56;4363079;32;20118;-75
2021/12/26 09:21:25;;;;;;;4.15;3.95;;;;;;;1.42;86.63;100270.19;4349095;32;20574;-73
2021/12/26 09:23:51;;;;;;;2.65;2.55;;;;;;;1.50;86.95;100276.06;4355125;32;20077;-74
2021/12/26 09:26:16;;;;;;;2.70;2.60;;;;;;;1.58;86.64;100282.78;4362666;32;20483;-74
2021/12/26 09:28:41;;;;;;;2.55;2.45;;;;;;;1.50;86.75;100279.47;4350923;32;21605;-75
2021/12/26 09:31:07;;;;;;;2.62;2.53;;;;;;;1.46;86.35;100262.34;4371854;32;20081;-75
2021/12/26 09:33:32;;;;;;;3.85;3.72;;;;;;;1.46;86.92;100266.66;4367519;32;20168;-75
2021/12/26 09:35:59;;;;;;;2.50;2.40;;;;;;;1.62;86.17;100273.19;4371855;32;20694;-73
2021/12/26 09:38:24;;;;;;;4.20;4.00;;;;;;;1.65;86.20;100278.31;4352745;32;20591;-73
2021/12/26 09:40:50;;;;;;;2.70;2.60;;;;;;;1.51;86.29;100249.31;4363000;32;20154;-74
2021/12/26 09:43:15;;;;;;;2.70;2.60;;;;;;;1.26;86.56;100199.87;4375142;32;20568;-75
2021/12/26 09:45:40;;;;;;;2.60;2.50;;;;;;;1.34;87.09;100200.56;4359879;32;20089;-75
2021/12/26 09:48:07;;;;;;;2.92;2.83;;;;;;;1.66;86.60;100253.28;4366177;32;20089;-74
2021/12/26 09:50:32;;;;;;;4.20;4.00;;;;;;;1.85;86.14;100272.69;4375597;32;20572;-74
2021/12/26 09:52:57;;;;;;;2.70;2.60;;;;;;;1.91;85.40;100263.94;4367035;32;20069;-75
2021/12/26 09:55:26;;;;;;;4.18;3.97;;;;;;;1.94;85.13;100259.50;4368725;32;20066;-73
2021/12/26 09:57:51;;;;;;;3.10;2.90;;;;;;;1.97;84.91;100263.78;4362662;32;20081;-74
2021/12/26 10:00:26;;;;;;;3.28;3.17;;;;;;;2.02;84.69;100267.09;4366996;32;20081;-74
2021/12/26 10:03:13;;;;;;;2.90;2.80;;;;;;;2.01;84.96;100265.41;4378380;32;20659;-73
2021/12/26 10:05:58;;;;;;;2.60;2.50;;;;;;;2.03;85.87;100258.47;4383683;32;20658;-74
2021/12/26 10:08:24;;;;;;;3.87;3.75;;;;;;;2.12;85.58;100262.56;4380613;32;20069;-77
2021/12/26 10:11:14;;;;;;;2.85;2.75;;;;;;;1.99;86.49;100262.84;4362432;32;20185;-74
2021/12/26 10:13:51;;;;;;;3.12;3.03;;;;;;;1.97;87.03;100259.47;4366219;32;20360;-74
2021/12/26 10:16:20;;;;;;;2.55;2.45;;;;;;;1.85;87.99;100251.16;4378026;32;20150;-73
2021/12/26 10:18:46;;;;;;;2.60;2.50;;;;;;;1.86;89.17;100261.44;4364853;32;20139;-74
2021/12/26 10:21:24;;;;;;;2.60;2.50;;;;;;;1.89;89.48;100261.37;4354749;32;20176;-74
2021/12/26 10:23:50;;;;;;;2.80;2.70;;;;;;;1.89;89.86;100258.78;4365482;32;21025;-74
2021/12/26 10:26:20;;;;;;;2.50;2.40;;;;;;;1.61;89.77;100226.69;4375530;32;20084;-74
2021/12/26 10:29:09;;;;;;;2.70;2.60;;;;;;;1.71;90.80;100241.97;4365550;32;20074;-73
2021/12/26 10:31:35;;;;;;;2.92;2.83;;;;;;;1.44;92.01;100193.44;4362428;32;20386;-74
2021/12/26 10:34:00;;;;;;;2.83;2.72;;;;;;;1.41;92.55;100194.38;4355833;32;20069;-75
2021/12/26 10:36:26;;;;;;;4.45;4.25;;;;;;;1.08;93.02;100160.62;4373198;32;20073;-73
2021/12/26 10:39:09;;;;;;;2.65;2.55;;;;;;;1.59;93.04;100221.56;4350547;32;20103;-75
2021/12/26 10:41:40;;;;;;;3.03;2.92;;;;;;;1.32;93.49;100160.97;4378913;32;20357;-73
2021/12/26 10:44:05;;;;;;;2.58;2.47;;;;;;;1.10;94.10;100114.09;4364239;32;20156;-73
2021/12/26 10:46:31;;;;;;;4.35;4.15;;;;;;;1.74;94.03;100210.81;4362890;32;20081;-74
2021/12/26 10:49:18;;;;;;;2.50;2.40;;;;;;;1.64;94.32;100196.41;4365056;32;20077;-73
2021/12/26 10:51:44;;;;;;;2.60;2.50;;;;;;;1.55;94.31;100186.31;4375724;32;20100;-74
2021/12/26 10:54:16;;;;;;;2.60;2.50;;;;;;;1.56;94.22;100199.22;4366367;32;20093;-73
2021/12/26 10:56:42;;;;;;;;;;;;;;;1.72;94.69;100217.78;4375887;32;20099;-73
2021/12/26 10:59:20;;;;;;;2.53;2.42;;;;;;;0.78;93.93;100063.97;4380264;32;19976;-74
2021/12/26 11:01:45;;;;;;;3.15;2.95;;;;;;;1.72;94.42;100211.75;4364532;32;20415;-76
2021/12/26 11:04:11;;;;;;;2.60;2.50;;;;;;;1.69;93.54;100202.34;4364875;32;20128;-76
2021/12/26 11:06:57;;;;;;;2.83;2.72;;;;;;;1.81;93.19;100211.56;4365567;32;20085;-73
2021/12/26 11:09:22;;;;;;;4.03;3.83;;;;;;;1.88;93.21;100184.62;4373599;32;20669;-74
2021/12/26 11:12:08;;;;;;;2.70;2.60;;;;;;;1.90;93.51;100205.28;4360109;32;20084;-73
2021/12/26 11:14:59;;;;;;;3.97;3.80;;;;;;;2.01;92.99;100192.09;4350207;32;20663;-74
2021/12/26 11:17:32;;;;;;;3.70;3.60;;;;;;;1.88;92.28;100158.75;4384609;32;20144;-74
2021/12/26 11:19:57;;;;;;;2.70;2.60;;;;;;;2.12;91.94;100179.72;4362817;32;20095;-75
2021/12/26 11:22:23;;;;;;;4.47;4.28;;;;;;;2.20;92.51;100182.97;4353398;32;20560;-74
2021/12/26 11:24:50;;;;;;;3.10;3.00;;;;;;;2.19;92.19;100187.31;4359185;32;20346;-72
2021/12/26 11:27:15;;;;;;;2.60;2.50;;;;;;;2.15;92.38;100180.50;4353764;32;20143;-74
2021/12/26 11:29:40;;;;;;;2.67;2.58;;;;;;;2.17;92.81;100183.91;4374805;32;20818;-77
2021/12/26 11:32:06;;;;;;;2.60;2.50;;;;;;;1.91;93.03;100134.56;4357115;32;20084;-76
2021/12/26 11:34:32;;;;;;;4.15;3.95;;;;;;;2.25;93.38;100194.06;4352605;32;20555;-73